createdAt,value
2022-10-11T00:00:52.901Z,9.36
2022-10-11T00:03:21.613Z,9.34
2022-10-11T00:05:49.081Z,9.39
2022-10-11T00:08:17.381Z,9.38
2022-10-11T00:10:46.042Z,9.34
2022-10-11T00:13:13.492Z,9.31
2022-10-11T00:15:41.111Z,9.33
2022-10-11T00:18:08.622Z,9.35
2022-10-11T00:20:37.629Z,9.35
2022-10-11T00:23:05.242Z,9.37
2022-10-11T00:25:33.026Z,9.40
2022-10-11T00:28:00.567Z,9.34
2022-10-11T00:30:28.146Z,9.36
2022-10-11T00:32:55.980Z,9.40
2022-10-11T00:35:23.528Z,9.34
2022-10-11T00:37:51.005Z,9.35
2022-10-11T00:40:20.763Z,9.37
2022-10-11T00:42:48.433Z,9.34
2022-10-11T00:45:27.047Z,9.35
2022-10-11T00:47:57.309Z,9.30
2022-10-11T00:50:28.156Z,9.22
2022-10-11T00:52:59.033Z,9.25
2022-10-11T00:55:32.853Z,9.31
2022-10-11T00:58:00.513Z,9.31
2022-10-11T01:00:28.422Z,9.31
2022-10-11T01:02:56.247Z,9.31
2022-10-11T01:05:29.657Z,9.30
2022-10-11T01:08:00.338Z,9.30
2022-10-11T01:10:29.072Z,9.29
2022-10-11T01:13:06.580Z,9.36
2022-10-11T01:15:57.558Z,9.32
2022-10-11T01:18:36.605Z,9.36
2022-10-11T01:21:31.517Z,9.37
2022-10-11T01:24:34.385Z,9.42
2022-10-11T01:27:30.917Z,9.40
2022-10-11T01:30:29.280Z,9.40
2022-10-11T01:33:03.553Z,9.44
2022-10-11T01:36:27.799Z,9.42
2022-10-11T01:39:05.163Z,9.44
2022-10-11T01:41:43.872Z,9.43
2022-10-11T01:44:13.771Z,9.44
2022-10-11T01:46:41.951Z,9.44
2022-10-11T01:49:10.026Z,9.46
2022-10-11T01:51:46.343Z,9.44
2022-10-11T01:55:08.255Z,9.44
2022-10-11T01:58:21.188Z,9.43
2022-10-11T02:01:27.088Z,9.48
2022-10-11T02:04:13.642Z,9.44
2022-10-11T02:07:18.342Z,9.39
2022-10-11T02:09:54.701Z,9.44
2022-10-11T02:12:42.535Z,9.45
2022-10-11T02:15:14.353Z,9.36
2022-10-11T02:17:49.453Z,9.33
2022-10-11T02:20:21.454Z,9.30
2022-10-11T02:22:52.519Z,9.28
2022-10-11T02:25:25.865Z,9.26
2022-10-11T02:27:56.996Z,9.25
2022-10-11T02:30:24.685Z,9.19
2022-10-11T02:32:54.656Z,9.18
2022-10-11T02:35:25.262Z,9.19
2022-10-11T02:38:03.817Z,9.16
2022-10-11T02:40:42.802Z,9.13
2022-10-11T02:43:23.954Z,9.12
2022-10-11T02:45:56.866Z,9.07
2022-10-11T02:48:27.580Z,8.99
2022-10-11T02:50:59.191Z,8.96
2022-10-11T02:53:27.302Z,8.91
2022-10-11T02:55:55.505Z,8.88
2022-10-11T02:58:24.326Z,8.78
2022-10-11T03:00:53.425Z,8.85
2022-10-11T03:03:21.070Z,8.88
2022-10-11T03:05:48.565Z,8.88
2022-10-11T03:08:17.480Z,8.90
2022-10-11T03:10:45.288Z,8.91
2022-10-11T03:13:17.847Z,8.90
2022-10-11T03:16:02.272Z,8.84
2022-10-11T03:18:32.021Z,8.90
2022-10-11T03:20:59.911Z,8.91
2022-10-11T03:23:27.611Z,8.90
2022-10-11T03:25:55.075Z,8.86
2022-10-11T03:28:22.616Z,8.90
2022-10-11T03:30:51.368Z,8.88
2022-10-11T03:33:19.778Z,8.89
2022-10-11T03:35:48.325Z,8.87
2022-10-11T03:38:22.108Z,8.86
2022-10-11T03:40:49.733Z,8.84
2022-10-11T03:43:17.700Z,8.80
2022-10-11T03:45:45.281Z,8.89
2022-10-11T03:48:13.170Z,8.84
2022-10-11T03:50:40.785Z,8.80
2022-10-11T03:53:08.348Z,8.88
2022-10-11T03:55:39.183Z,8.87
2022-10-11T03:58:07.728Z,8.84
2022-10-11T04:00:35.878Z,8.83
2022-10-11T04:03:06.522Z,8.86
2022-10-11T04:05:34.877Z,8.84
2022-10-11T04:08:05.425Z,8.85
2022-10-11T04:10:40.814Z,8.83
2022-10-11T04:13:11.329Z,8.91
2022-10-11T04:15:39.596Z,8.95
2022-10-11T04:18:07.856Z,8.96
2022-10-11T04:20:35.910Z,8.96
2022-10-11T04:23:03.484Z,8.99
2022-10-11T04:25:31.369Z,8.92
2022-10-11T04:27:58.931Z,8.94
2022-10-11T04:30:27.559Z,8.97
2022-10-11T04:32:55.025Z,8.89
2022-10-11T04:35:22.501Z,8.96
2022-10-11T04:37:49.951Z,8.95
2022-10-11T04:40:17.569Z,8.88
2022-10-11T04:42:45.080Z,8.95
2022-10-11T04:45:13.111Z,8.94
2022-10-11T04:47:41.228Z,8.94
2022-10-11T04:50:08.882Z,8.94
2022-10-11T04:52:36.668Z,8.98
2022-10-11T04:55:04.735Z,9.04
2022-10-11T04:57:32.279Z,9.00
2022-10-11T04:59:59.704Z,8.99
2022-10-11T05:02:27.234Z,9.01
2022-10-11T05:04:54.987Z,9.04
2022-10-11T05:07:22.428Z,9.03
2022-10-11T05:09:49.937Z,8.99
2022-10-11T05:12:17.452Z,9.05
2022-10-11T05:14:45.363Z,9.06
2022-10-11T05:17:16.633Z,9.04
2022-10-11T05:19:44.113Z,9.00
2022-10-11T05:22:12.330Z,9.08
2022-10-11T05:24:39.839Z,9.08
2022-10-11T05:27:07.274Z,9.08
2022-10-11T05:29:34.811Z,9.11
2022-10-11T05:32:02.447Z,9.12
2022-10-11T05:34:30.065Z,9.11
2022-10-11T05:36:57.626Z,9.14
2022-10-11T05:39:25.073Z,9.22
2022-10-11T05:41:53.136Z,9.25
2022-10-11T05:44:20.561Z,9.16
2022-10-11T05:46:48.351Z,9.19
2022-10-11T05:49:15.914Z,9.24
2022-10-11T05:51:43.593Z,9.21
2022-10-11T05:54:11.204Z,9.21
2022-10-11T05:56:38.942Z,9.16
2022-10-11T05:59:06.731Z,9.21
2022-10-11T06:01:34.321Z,9.26
2022-10-11T06:04:01.968Z,9.14
2022-10-11T06:06:29.777Z,9.16
2022-10-11T06:08:57.283Z,9.11
2022-10-11T06:11:27.686Z,9.18
2022-10-11T06:13:57.424Z,9.24
2022-10-11T06:16:25.217Z,9.20
2022-10-11T06:18:58.331Z,9.29
2022-10-11T06:21:25.826Z,9.16
2022-10-11T06:23:59.885Z,9.20
2022-10-11T06:26:29.595Z,9.24
2022-10-11T06:28:57.337Z,9.16
2022-10-11T06:31:26.138Z,9.07
2022-10-11T06:33:53.723Z,8.96
2022-10-11T06:36:21.779Z,8.96
2022-10-11T06:38:52.243Z,8.93
2022-10-11T06:41:22.384Z,9.01
2022-10-11T06:43:51.631Z,9.10
2022-10-11T06:46:20.745Z,9.13
2022-10-11T06:48:48.942Z,9.20
2022-10-11T06:51:19.734Z,9.16
2022-10-11T06:53:55.672Z,9.22
2022-10-11T06:56:25.341Z,9.28
2022-10-11T06:58:57.788Z,9.39
2022-10-11T07:01:26.669Z,9.49
2022-10-11T07:03:56.626Z,9.46
2022-10-11T07:06:27.972Z,9.44
2022-10-11T07:09:00.330Z,9.36
2022-10-11T07:11:28.877Z,9.34
2022-10-11T07:13:59.695Z,9.34
2022-10-11T07:16:30.554Z,9.41
2022-10-11T07:19:00.980Z,9.46
2022-10-11T07:21:31.677Z,9.46
2022-10-11T07:24:00.011Z,9.59
2022-10-11T07:26:29.738Z,9.65
2022-10-11T07:28:59.507Z,9.64
2022-10-11T07:31:27.776Z,9.70
2022-10-11T07:33:55.433Z,9.77
2022-10-11T07:36:23.423Z,9.73
2022-10-11T07:38:51.322Z,9.77
2022-10-11T07:41:19.585Z,9.67
2022-10-11T07:43:49.600Z,9.68
2022-10-11T07:46:18.888Z,9.81
2022-10-11T07:48:50.189Z,9.85
2022-10-11T07:51:19.292Z,9.95
2022-10-11T07:53:55.775Z,10.05
2022-10-11T07:56:28.425Z,10.16
2022-10-11T07:59:00.922Z,10.22
2022-10-11T08:01:29.271Z,10.31
2022-10-11T08:03:57.870Z,10.40
2022-10-11T08:06:30.283Z,10.54
2022-10-11T08:09:00.720Z,10.61
2022-10-11T08:11:33.622Z,10.73
2022-10-11T08:14:02.184Z,10.79
2022-10-11T08:16:32.385Z,10.81
2022-10-11T08:19:01.199Z,10.87
2022-10-11T08:21:30.589Z,11.04
2022-10-11T08:23:58.165Z,11.11
2022-10-11T08:26:25.751Z,11.06
2022-10-11T08:28:53.992Z,11.07
2022-10-11T08:31:21.571Z,11.13
2022-10-11T08:33:49.705Z,11.17
2022-10-11T08:36:17.281Z,11.17
2022-10-11T08:38:44.860Z,11.22
2022-10-11T08:41:27.079Z,11.40
2022-10-11T08:44:05.078Z,11.48
2022-10-11T08:46:35.305Z,11.60
2022-10-11T08:49:04.150Z,11.74
2022-10-11T08:51:42.041Z,11.87
2022-10-11T08:54:28.466Z,11.85
2022-10-11T08:56:56.089Z,11.91
2022-10-11T08:59:51.743Z,11.98
2022-10-11T09:03:06.288Z,12.05
2022-10-11T09:05:34.818Z,12.09
2022-10-11T09:08:21.646Z,12.25
2022-10-11T09:10:55.242Z,12.23
2022-10-11T09:13:43.835Z,12.40
2022-10-11T09:16:42.771Z,12.23
2022-10-11T09:19:23.033Z,12.21
2022-10-11T09:21:50.519Z,12.35
2022-10-11T09:24:27.832Z,12.48
2022-10-11T09:26:59.476Z,12.53
2022-10-11T09:29:45.820Z,12.55
2022-10-11T09:32:16.585Z,12.59
2022-10-11T09:34:44.768Z,12.73
2022-10-11T09:37:25.632Z,12.74
2022-10-11T09:40:19.611Z,12.82
2022-10-11T09:42:47.244Z,12.84
2022-10-11T09:45:19.639Z,12.85
2022-10-11T09:47:49.841Z,12.99
2022-10-11T09:50:22.060Z,13.01
2022-10-11T09:52:55.598Z,12.93
2022-10-11T09:55:30.792Z,13.07
2022-10-11T09:57:58.425Z,13.18
2022-10-11T10:00:28.984Z,13.19
2022-10-11T10:02:59.695Z,13.16
2022-10-11T10:05:32.093Z,13.29
2022-10-11T10:08:11.475Z,13.38
2022-10-11T10:10:46.126Z,13.49
2022-10-11T10:13:56.227Z,13.45
2022-10-11T10:16:26.337Z,13.47
2022-10-11T10:19:03.666Z,13.42
2022-10-11T10:21:53.628Z,13.48
2022-10-11T10:24:36.639Z,13.56
2022-10-11T10:27:22.745Z,13.62
2022-10-11T10:30:02.110Z,13.58
2022-10-11T10:32:37.044Z,13.50
2022-10-11T10:35:25.337Z,13.55
2022-10-11T10:37:52.746Z,13.68
2022-10-11T10:40:32.383Z,13.75
2022-10-11T10:43:01.601Z,13.65
2022-10-11T10:45:42.932Z,13.82
2022-10-11T10:49:23.217Z,14.07
2022-10-11T10:51:50.756Z,14.12
2022-10-11T10:54:39.605Z,14.19
2022-10-11T10:57:29.217Z,14.12
2022-10-11T11:00:12.130Z,14.14
2022-10-11T11:03:01.062Z,14.21
2022-10-11T11:06:02.463Z,14.18
2022-10-11T11:09:01.467Z,14.44
2022-10-11T11:11:50.908Z,14.42
2022-10-11T11:14:31.723Z,14.40
2022-10-11T11:17:22.605Z,14.18
2022-10-11T11:20:24.940Z,14.31
2022-10-11T11:23:02.153Z,14.38
2022-10-11T11:25:46.938Z,14.40
2022-10-11T11:28:48.287Z,14.49
2022-10-11T11:31:15.832Z,14.53
2022-10-11T11:34:13.985Z,14.53
2022-10-11T11:36:47.340Z,14.70
2022-10-11T11:39:23.759Z,14.81
2022-10-11T11:42:04.476Z,14.91
2022-10-11T11:44:38.535Z,14.73
2022-10-11T11:47:10.736Z,14.62
2022-10-11T11:52:25.299Z,14.56
2022-10-11T11:55:10.743Z,14.72
2022-10-11T11:58:03.282Z,14.76
2022-10-11T12:01:00.378Z,14.64
2022-10-11T12:03:35.133Z,14.54
2022-10-11T12:06:13.500Z,14.46
2022-10-11T12:08:46.001Z,14.44
2022-10-11T12:11:43.297Z,14.47
2022-10-11T12:14:28.669Z,14.45
2022-10-11T12:17:13.507Z,14.49
2022-10-11T12:20:03.480Z,14.52
2022-10-11T12:22:31.260Z,14.47
2022-10-11T12:25:02.179Z,14.46
2022-10-11T12:27:41.509Z,14.59
2022-10-11T12:30:42.779Z,14.62
2022-10-11T12:33:18.722Z,14.52
2022-10-11T12:35:55.427Z,14.59
2022-10-11T12:38:33.999Z,14.62
2022-10-11T12:41:10.414Z,14.65
2022-10-11T12:43:48.085Z,14.74
2022-10-11T12:46:31.188Z,14.68
2022-10-11T12:49:12.895Z,14.64
2022-10-11T12:52:01.165Z,14.64
2022-10-11T12:55:07.078Z,14.76
2022-10-11T12:57:45.230Z,14.87
2022-10-11T13:00:28.186Z,14.92
2022-10-11T13:02:58.404Z,14.73
2022-10-11T13:06:01.492Z,14.66
2022-10-11T13:08:34.740Z,14.55
2022-10-11T13:11:06.284Z,14.45
2022-10-11T13:14:06.036Z,14.36
2022-10-11T13:16:52.219Z,14.34
2022-10-11T13:19:23.156Z,14.33
2022-10-11T13:21:55.475Z,14.35
2022-10-11T13:24:25.016Z,14.32
2022-10-11T13:26:56.289Z,14.37
2022-10-11T13:29:30.464Z,14.39
2022-10-11T13:31:58.638Z,14.44
2022-10-11T13:34:32.965Z,14.46
2022-10-11T13:37:03.272Z,14.36
2022-10-11T13:39:35.535Z,14.32
2022-10-11T13:42:10.936Z,14.27
2022-10-11T13:44:39.705Z,14.21
2022-10-11T13:47:11.062Z,14.19
2022-10-11T13:49:40.085Z,14.26
2022-10-11T13:52:20.060Z,14.27
2022-10-11T13:54:53.783Z,14.26
2022-10-11T13:57:46.253Z,14.20
2022-10-11T14:00:19.651Z,14.19
2022-10-11T14:02:53.633Z,14.15
2022-10-11T14:05:34.094Z,14.16
2022-10-11T14:08:26.530Z,14.13
2022-10-11T14:10:57.844Z,14.11
2022-10-11T14:13:40.242Z,14.10
2022-10-11T14:16:20.261Z,14.05
2022-10-11T14:19:02.245Z,14.08
2022-10-11T14:21:49.272Z,14.03
2022-10-11T14:24:17.952Z,14.01
2022-10-11T14:26:55.943Z,14.04
2022-10-11T14:29:30.287Z,14.04
2022-10-11T14:32:11.134Z,14.03
2022-10-11T14:34:38.756Z,14.00
2022-10-11T14:37:06.599Z,13.96
2022-10-11T14:39:34.900Z,13.92
2022-10-11T14:42:02.810Z,13.94
2022-10-11T14:44:30.553Z,13.94
2022-10-11T14:46:58.340Z,13.86
2022-10-11T14:49:29.916Z,13.86
2022-10-11T14:51:59.411Z,13.84
2022-10-11T14:54:29.141Z,13.85
2022-10-11T14:57:00.848Z,13.77
2022-10-11T14:59:34.680Z,13.77
2022-10-11T15:02:02.970Z,13.69
2022-10-11T15:04:31.365Z,13.75
2022-10-11T15:06:59.231Z,13.65
2022-10-11T15:09:29.523Z,13.64
2022-10-11T15:11:57.782Z,13.68
2022-10-11T15:14:25.974Z,13.64
2022-10-11T15:16:54.011Z,13.64
2022-10-11T15:19:24.359Z,13.60
2022-10-11T15:21:52.553Z,13.62
2022-10-11T15:24:20.352Z,13.58
2022-10-11T15:26:49.835Z,13.56
2022-10-11T15:29:18.181Z,13.51
2022-10-11T15:31:46.609Z,13.48
2022-10-11T15:34:14.433Z,13.48
2022-10-11T15:36:42.555Z,13.48
2022-10-11T15:39:32.696Z,13.45
2022-10-11T15:42:00.685Z,13.45
2022-10-11T15:44:28.266Z,13.45
2022-10-11T15:46:56.241Z,13.48
2022-10-11T15:49:24.006Z,13.50
2022-10-11T15:51:52.743Z,13.50
2022-10-11T15:54:20.405Z,13.48
2022-10-11T15:56:48.086Z,13.47
2022-10-11T15:59:15.675Z,13.48
2022-10-11T16:01:43.473Z,13.47
2022-10-11T16:04:11.027Z,13.44
2022-10-11T16:06:41.057Z,13.45
2022-10-11T16:09:08.751Z,13.47
2022-10-11T16:11:36.400Z,13.40
2022-10-11T16:14:05.080Z,13.44
2022-10-11T16:16:32.902Z,13.39
2022-10-11T16:19:01.808Z,13.35
2022-10-11T16:21:29.450Z,13.37
2022-10-11T16:23:57.021Z,13.33
2022-10-11T16:26:24.491Z,13.36
2022-10-11T16:28:52.072Z,13.36
2022-10-11T16:31:21.085Z,13.36
2022-10-11T16:33:50.252Z,13.32
2022-10-11T16:36:36.600Z,13.31
2022-10-11T16:39:08.109Z,13.30
2022-10-11T16:41:35.856Z,13.30
2022-10-11T16:44:03.847Z,13.28
2022-10-11T16:46:32.772Z,13.30
2022-10-11T16:49:00.429Z,13.27
2022-10-11T16:51:29.945Z,13.28
2022-10-11T16:53:57.910Z,13.29
2022-10-11T16:56:25.792Z,13.23
2022-10-11T16:58:54.320Z,13.21
2022-10-11T17:01:22.928Z,13.24
2022-10-11T17:03:50.999Z,13.24
2022-10-11T17:06:18.997Z,13.19
2022-10-11T17:08:46.956Z,13.22
2022-10-11T17:11:15.206Z,13.20
2022-10-11T17:13:42.834Z,13.21
2022-10-11T17:16:10.391Z,13.21
2022-10-11T17:18:38.254Z,13.21
2022-10-11T17:21:08.476Z,13.15
2022-10-11T17:23:36.331Z,13.18
2022-10-11T17:26:11.606Z,13.21
2022-10-11T17:28:39.489Z,13.18
2022-10-11T17:31:08.325Z,13.15
2022-10-11T17:33:36.735Z,13.15
2022-10-11T17:36:22.882Z,13.13
2022-10-11T17:38:51.742Z,13.12
2022-10-11T17:41:20.188Z,13.15
2022-10-11T17:43:48.162Z,13.09
2022-10-11T17:46:17.268Z,13.05
2022-10-11T17:48:45.578Z,13.07
2022-10-11T17:51:16.868Z,13.04
2022-10-11T17:53:46.772Z,13.00
2022-10-11T17:56:18.727Z,12.98
2022-10-11T17:58:47.167Z,12.94
2022-10-11T18:01:20.233Z,12.90
2022-10-11T18:03:55.266Z,12.89
2022-10-11T18:06:23.849Z,12.86
2022-10-11T18:08:51.434Z,12.85
2022-10-11T18:11:20.309Z,12.81
2022-10-11T18:13:50.160Z,12.77
2022-10-11T18:16:21.275Z,12.81
2022-10-11T18:18:52.198Z,12.74
2022-10-11T18:21:20.387Z,12.72
2022-10-11T18:23:48.300Z,12.65
2022-10-11T18:26:24.355Z,12.68
2022-10-11T18:28:55.975Z,12.64
2022-10-11T18:31:26.538Z,12.64
2022-10-11T18:33:54.433Z,12.58
2022-10-11T18:36:25.240Z,12.60
2022-10-11T18:38:57.890Z,12.62
2022-10-11T18:41:30.840Z,12.65
2022-10-11T18:44:02.147Z,12.63
2022-10-11T18:46:30.733Z,12.57
2022-10-11T18:49:02.031Z,12.58
2022-10-11T18:51:38.482Z,12.48
2022-10-11T18:54:08.040Z,12.49
2022-10-11T18:56:37.203Z,12.45
2022-10-11T18:59:05.939Z,12.41
2022-10-11T19:01:38.198Z,12.35
2022-10-11T19:04:08.998Z,12.36
2022-10-11T19:06:41.926Z,12.32
2022-10-11T19:09:21.403Z,12.24
2022-10-11T19:11:50.806Z,12.21
2022-10-11T19:14:21.760Z,12.19
2022-10-11T19:16:53.095Z,12.12
2022-10-11T19:19:24.022Z,12.09
2022-10-11T19:21:51.841Z,12.01
2022-10-11T19:24:21.471Z,12.00
2022-10-11T19:26:58.518Z,11.93
2022-10-11T19:29:30.668Z,11.82
2022-10-11T19:32:00.290Z,11.79
2022-10-11T19:34:28.906Z,11.76
2022-10-11T19:36:57.170Z,11.71
2022-10-11T19:39:25.550Z,11.61
2022-10-11T19:41:55.101Z,11.55
2022-10-11T19:44:22.987Z,11.51
2022-10-11T19:46:52.430Z,11.41
2022-10-11T19:49:24.914Z,11.37
2022-10-11T19:51:53.941Z,11.26
2022-10-11T19:54:21.896Z,11.14
2022-10-11T19:56:49.678Z,11.09
2022-10-11T19:59:17.639Z,11.02
2022-10-11T20:01:49.604Z,11.00
2022-10-11T20:04:47.189Z,10.94
2022-10-11T20:07:07.691Z,10.92
2022-10-11T20:09:36.724Z,10.85
2022-10-11T20:12:04.452Z,10.87
2022-10-11T20:14:32.154Z,10.84
2022-10-11T20:17:01.945Z,10.83
2022-10-11T20:19:31.396Z,10.79
2022-10-11T20:22:00.380Z,10.81
2022-10-11T20:24:32.691Z,10.77
2022-10-11T20:27:05.086Z,10.70
2022-10-11T20:29:33.053Z,10.68
2022-10-11T20:32:00.655Z,10.59
2022-10-11T20:34:28.812Z,10.52
2022-10-11T20:36:56.468Z,10.51
2022-10-11T20:39:24.326Z,10.44
2022-10-11T20:41:51.829Z,10.44
2022-10-11T20:44:20.201Z,10.41
2022-10-11T20:46:47.779Z,10.39
2022-10-11T20:49:15.642Z,10.32
2022-10-11T20:51:43.891Z,10.35
2022-10-11T20:54:13.935Z,10.24
2022-10-11T20:56:41.638Z,10.19
2022-10-11T20:59:10.320Z,10.08
2022-10-11T21:01:40.730Z,10.03
2022-10-11T21:04:14.363Z,9.98
2022-10-11T21:06:41.867Z,9.94
2022-10-11T21:09:11.395Z,9.93
2022-10-11T21:11:41.602Z,9.94
2022-10-11T21:14:09.112Z,9.89
2022-10-11T21:16:39.550Z,9.89
2022-10-11T21:19:07.208Z,9.86
2022-10-11T21:21:35.124Z,9.84
2022-10-11T21:24:02.783Z,9.85
2022-10-11T21:26:31.410Z,9.82
2022-10-11T21:28:59.696Z,9.76
2022-10-11T21:31:32.736Z,9.80
2022-10-11T21:34:02.585Z,9.70
2022-10-11T21:36:30.891Z,9.67
2022-10-11T21:38:58.545Z,9.63
2022-10-11T21:41:29.364Z,9.63
2022-10-11T21:43:57.693Z,9.57
2022-10-11T21:47:01.297Z,9.64
2022-10-11T21:49:18.703Z,9.65
2022-10-11T21:51:47.649Z,9.59
2022-10-11T21:54:15.395Z,9.58
2022-10-11T21:56:43.043Z,9.53
2022-10-11T21:59:12.633Z,9.56
2022-10-11T22:01:42.955Z,9.49
2022-10-11T22:04:12.019Z,9.47
2022-10-11T22:06:41.025Z,9.43
2022-10-11T22:09:09.105Z,9.44
2022-10-11T22:11:37.878Z,9.43
2022-10-11T22:14:09.846Z,9.48
2022-10-11T22:16:37.373Z,9.50
2022-10-11T22:19:06.031Z,9.44
2022-10-11T22:21:34.636Z,9.44
2022-10-11T22:24:02.210Z,9.40
2022-10-11T22:26:34.469Z,9.34
2022-10-11T22:29:02.090Z,9.31
2022-10-11T22:31:30.660Z,9.34
2022-10-11T22:34:00.406Z,9.28
2022-10-11T22:36:30.633Z,9.28
2022-10-11T22:38:59.091Z,9.24
2022-10-11T22:41:26.903Z,9.23
2022-10-11T22:43:54.560Z,9.18
2022-10-11T22:46:22.073Z,9.18
2022-10-11T22:48:49.659Z,9.14
2022-10-11T22:51:17.515Z,9.17
2022-10-11T22:53:45.031Z,9.22
2022-10-11T22:56:12.620Z,9.26
2022-10-11T22:58:40.792Z,9.29
2022-10-11T23:01:10.515Z,9.28
2022-10-11T23:03:38.348Z,9.34
2022-10-11T23:06:06.553Z,9.36
2022-10-11T23:08:34.294Z,9.35
2022-10-11T23:11:06.372Z,9.32
2022-10-11T23:13:34.905Z,9.27
2022-10-11T23:16:10.697Z,9.26
2022-10-11T23:18:38.845Z,9.13
2022-10-11T23:21:07.244Z,9.07
2022-10-11T23:23:35.413Z,8.98
2022-10-11T23:26:05.412Z,8.98
2022-10-11T23:28:33.321Z,8.97
2022-10-11T23:31:09.874Z,8.94
2022-10-11T23:33:37.891Z,8.87
2022-10-11T23:36:14.989Z,8.92
2022-10-11T23:38:44.210Z,8.87
2022-10-11T23:41:11.959Z,8.85
2022-10-11T23:43:39.741Z,8.80
2022-10-11T23:46:07.216Z,8.73
2022-10-11T23:48:35.034Z,8.77
2022-10-11T23:51:02.656Z,8.73
2022-10-11T23:53:30.447Z,8.70
2022-10-11T23:55:58.068Z,8.67
2022-10-11T23:58:25.577Z,8.55
